Time;durP1;ratioP1;P1;durP2;ratioP2;P2;SDS_P1;SDS_P2;PMS_P1;PMS_P2;Temp;Humidity;BMP_temperature;BMP_pressure;BME280_temperature;BME280_humidity;BME280_pressure;Samples;Min_cycle;Max_cycle;Signal;HPM_P1;HPM_P2
2021/12/24 00:00:44;;;;;;;114.03;27.20;;;6.40;99.90;;;;;;6152181;23;20406;-84
2021/12/24 00:03:11;;;;;;;103.40;28.02;;;6.40;99.90;;;;;;6151705;23;20037;-84
2021/12/24 00:05:37;;;;;;;93.10;26.98;;;6.40;99.90;;;;;;6126397;23;20052;-84
2021/12/24 00:08:04;;;;;;;122.95;28.20;;;6.40;99.90;;;;;;6127590;23;20125;-84
2021/12/24 00:10:31;;;;;;;103.47;25.17;;;6.40;99.90;;;;;;6150354;23;20073;-84
2021/12/24 00:13:02;;;;;;;103.15;28.83;;;6.50;99.90;;;;;;6127745;23;20009;-84
2021/12/24 00:18:19;;;;;;;104.85;26.80;;;6.60;99.90;;;;;;6202638;23;20713;-84
2021/12/24 00:22:10;;;;;;;93.70;24.23;;;6.60;99.90;;;;;;6151815;23;20049;-84
2021/12/24 00:35:12;;;;;;;96.32;23.50;;;6.60;99.90;;;;;;6201426;23;20507;-84
2021/12/24 00:37:40;;;;;;;101.45;26.33;;;6.60;99.90;;;;;;6151832;23;20013;-84
2021/12/24 00:40:14;;;;;;;98.93;24.13;;;6.60;99.90;;;;;;6149524;23;20013;-84
2021/12/24 00:42:44;;;;;;;89.90;24.08;;;6.70;99.90;;;;;;6202072;23;20062;-84
2021/12/24 00:45:11;;;;;;;102.65;25.30;;;6.70;99.90;;;;;;6128040;23;20010;-84
2021/12/24 00:47:36;;;;;;;109.07;25.80;;;6.70;99.90;;;;;;6151577;23;20013;-84
2021/12/24 00:50:07;;;;;;;83.88;25.05;;;6.70;99.90;;;;;;6149396;23;20009;-84
2021/12/24 00:52:46;;;;;;;74.60;20.45;;;6.70;99.90;;;;;;6126780;23;20097;-84
2021/12/24 00:55:14;;;;;;;90.90;24.30;;;6.70;99.90;;;;;;6148109;23;20009;-84
2021/12/24 00:57:46;;;;;;;89.88;24.15;;;6.70;99.90;;;;;;6150179;23;20096;-84
2021/12/24 01:00:18;;;;;;;88.30;24.47;;;6.80;99.90;;;;;;6126103;23;20020;-84
2021/12/24 01:02:45;;;;;;;79.47;24.25;;;6.80;99.90;;;;;;6126083;23;20037;-84
2021/12/24 01:05:11;;;;;;;78.22;22.77;;;6.80;99.90;;;;;;6124719;23;20044;-84
2021/12/24 01:07:37;;;;;;;77.15;22.27;;;6.80;99.90;;;;;;6125219;23;20550;-84
2021/12/24 01:10:07;;;;;;;60.92;20.17;;;6.90;99.90;;;;;;6125487;23;20045;-84
2021/12/24 01:12:33;;;;;;;68.88;20.92;;;6.90;99.90;;;;;;6124290;23;20056;-84
2021/12/24 01:14:59;;;;;;;65.60;19.88;;;6.90;99.90;;;;;;6123457;23;20075;-83
2021/12/24 01:17:38;;;;;;;57.25;19.67;;;6.90;99.90;;;;;;6148396;23;20475;-84
2021/12/24 01:20:26;;;;;;;57.70;19.48;;;7.00;99.90;;;;;;6123981;23;20041;-84
2021/12/24 01:44:11;;;;;;;61.83;21.20;;;7.20;99.90;;;;;;6118195;23;20024;-84
2021/12/24 01:46:37;;;;;;;57.45;18.35;;;7.30;99.90;;;;;;6095683;23;20025;-84
2021/12/24 01:49:02;;;;;;;67.03;20.05;;;7.30;99.90;;;;;;6121301;23;20018;-84
2021/12/24 01:51:29;;;;;;;62.67;21.75;;;7.30;99.90;;;;;;6100166;23;20527;-84
2021/12/24 01:53:55;;;;;;;61.15;18.45;;;7.30;99.90;;;;;;6122544;23;20018;-84
2021/12/24 01:56:21;;;;;;;62.45;22.10;;;7.40;99.90;;;;;;6100181;23;20036;-84
2021/12/24 01:58:46;;;;;;;78.30;20.67;;;7.40;99.90;;;;;;6099446;23;20101;-84
2021/12/24 02:01:12;;;;;;;67.88;20.02;;;7.40;99.90;;;;;;6098328;23;20014;-84
2021/12/24 02:03:38;;;;;;;66.78;19.65;;;7.40;99.90;;;;;;6098962;23;20021;-84
2021/12/24 02:06:04;;;;;;;66.10;19.85;;;7.40;99.90;;;;;;6122291;23;20021;-84
2021/12/24 02:08:29;;;;;;;75.90;21.45;;;7.50;99.90;;;;;;6099277;23;20013;-83
2021/12/24 02:10:56;;;;;;;70.18;20.45;;;7.50;99.90;;;;;;6121514;23;20065;-84
2021/12/24 02:13:22;;;;;;;77.13;20.30;;;7.60;99.90;;;;;;6122371;23;20014;-83
2021/12/24 02:29:25;;;;;;;70.60;19.13;;;7.90;99.90;;;;;;6121760;23;20417;-84
2021/12/24 02:31:51;;;;;;;62.50;17.50;;;7.90;99.90;;;;;;6123143;23;20034;-83
2021/12/24 02:34:17;;;;;;;67.35;17.92;;;8.00;99.90;;;;;;6098370;23;20018;-84
2021/12/24 02:36:42;;;;;;;63.92;18.48;;;8.00;99.90;;;;;;6099727;23;20013;-83
2021/12/24 02:39:08;;;;;;;71.93;20.58;;;8.00;99.90;;;;;;6138544;23;20025;-83
2021/12/24 02:41:34;;;;;;;69.25;18.30;;;8.00;99.90;;;;;;6206409;23;20463;-84
2021/12/24 02:43:59;;;;;;;70.22;18.63;;;8.00;99.90;;;;;;6156692;23;20013;-84
2021/12/24 02:46:42;;;;;;;57.25;16.30;;;8.00;99.90;;;;;;6158491;23;20084;-84
2021/12/24 02:49:15;;;;;;;;;;;8.00;99.90;;;;;;6159619;23;20347;-84
2021/12/24 02:54:26;;;;;;;54.60;15.02;;;8.00;99.90;;;;;;6158620;23;20017;-84
2021/12/24 02:56:55;;;;;;;56.33;15.88;;;8.00;99.90;;;;;;6135311;23;20044;-84
2021/12/24 02:59:29;;;;;;;47.20;14.63;;;8.00;99.90;;;;;;6132605;23;20344;-83
2021/12/24 03:01:57;;;;;;;43.35;13.05;;;8.00;99.90;;;;;;6206838;23;20028;-84
2021/12/24 03:04:22;;;;;;;51.78;13.57;;;8.00;99.90;;;;;;6132659;23;20036;-84
2021/12/24 03:06:51;;;;;;;45.05;12.90;;;8.00;99.90;;;;;;6132708;23;20451;-84
2021/12/24 03:09:19;;;;;;;30.58;10.45;;;8.10;99.90;;;;;;6205346;23;20013;-84
2021/12/24 03:11:47;;;;;;;32.55;9.52;;;8.20;99.90;;;;;;6133109;23;20075;-84
2021/12/24 03:14:15;;;;;;;23.40;9.43;;;8.20;99.90;;;;;;6155560;23;20005;-83
2021/12/24 03:16:44;;;;;;;25.75;9.25;;;8.40;99.90;;;;;;6156667;23;20016;-84
2021/12/24 03:19:11;;;;;;;22.45;8.90;;;8.50;99.90;;;;;;6156051;23;20467;-84
2021/12/24 03:21:49;;;;;;;24.13;9.38;;;8.50;99.90;;;;;;6206707;23;20020;-84
2021/12/24 03:24:35;;;;;;;28.45;9.93;;;8.50;99.90;;;;;;6131838;23;20299;-84
2021/12/24 03:27:00;;;;;;;26.27;9.40;;;8.60;99.90;;;;;;6157917;23;20742;-84
2021/12/24 03:29:26;;;;;;;25.23;10.68;;;8.60;99.90;;;;;;6133348;23;20021;-83
2021/12/24 03:31:51;;;;;;;29.73;10.75;;;8.60;99.90;;;;;;6157763;23;20009;-85
2021/12/24 03:34:20;;;;;;;28.88;11.80;;;8.60;99.90;;;;;;6207723;23;20013;-84
2021/12/24 03:36:46;;;;;;;34.63;12.57;;;8.60;99.90;;;;;;6208586;23;20058;-84
2021/12/24 03:39:12;;;;;;;37.22;13.18;;;8.60;99.90;;;;;;6206166;23;20096;-84
2021/12/24 03:41:38;;;;;;;37.53;13.88;;;8.60;99.90;;;;;;6133753;23;20020;-83
2021/12/24 03:44:08;;;;;;;39.25;15.48;;;8.60;99.90;;;;;;6132034;23;20514;-83
2021/12/24 03:46:44;;;;;;;35.22;14.30;;;8.60;99.90;;;;;;6156970;23;20471;-84
2021/12/24 03:49:18;;;;;;;37.60;14.45;;;8.60;99.90;;;;;;6156915;23;20020;-85
2021/12/24 03:51:55;;;;;;;37.95;14.65;;;8.60;99.90;;;;;;6132361;23;20009;-84
2021/12/24 03:57:05;;;;;;;32.83;14.98;;;8.50;99.90;;;;;;6157008;23;20108;-83
2021/12/24 03:59:31;;;;;;;41.80;16.88;;;8.50;99.90;;;;;;6155909;23;20044;-83
2021/12/24 04:01:57;;;;;;;35.35;14.10;;;8.50;99.90;;;;;;6156909;23;20017;-83
2021/12/24 04:04:22;;;;;;;35.08;14.45;;;8.50;99.90;;;;;;6131531;23;20052;-84
2021/12/24 04:06:48;;;;;;;37.58;15.65;;;8.50;99.90;;;;;;6156949;23;20025;-84
2021/12/24 04:09:14;;;;;;;27.98;13.63;;;8.60;99.90;;;;;;6131122;23;20012;-84
2021/12/24 04:11:40;;;;;;;33.28;14.30;;;8.60;99.90;;;;;;6157318;23;20103;-84
2021/12/24 04:14:06;;;;;;;28.17;12.43;;;8.60;99.90;;;;;;6155789;23;20088;-83
2021/12/24 04:16:32;;;;;;;35.60;14.05;;;8.60;99.90;;;;;;6206174;23;20076;-84
2021/12/24 04:19:22;;;;;;;35.42;13.75;;;8.60;99.90;;;;;;6205525;23;20024;-84
2021/12/24 04:27:15;;;;;;;35.85;14.38;;;8.50;99.90;;;;;;6157721;23;20080;-84
2021/12/24 04:29:41;;;;;;;29.58;12.43;;;8.50;99.90;;;;;;6133393;23;20025;-84
2021/12/24 04:32:14;;;;;;;37.50;14.50;;;8.50;99.90;;;;;;6183071;23;20084;-83
2021/12/24 04:34:44;;;;;;;34.60;13.77;;;8.60;99.90;;;;;;6131569;23;20379;-84
2021/12/24 05:01:30;;;;;;;34.85;13.23;;;8.60;99.90;;;;;;6158098;23;20021;-84
2021/12/24 05:03:58;;;;;;;27.13;11.25;;;8.60;99.90;;;;;;6206921;23;20017;-84
2021/12/24 05:08:52;;;;;;;27.13;11.77;;;8.70;99.90;;;;;;6156698;23;20336;-85
2021/12/24 05:11:20;;;;;;;31.90;12.15;;;8.60;99.90;;;;;;6207450;23;20474;-84
2021/12/24 05:13:48;;;;;;;32.72;12.88;;;8.60;99.90;;;;;;6207147;23;20391;-85
2021/12/24 05:16:23;;;;;;;34.08;12.65;;;8.60;99.90;;;;;;6206987;23;20020;-84
2021/12/24 05:21:36;;;;;;;32.95;12.32;;;8.70;99.90;;;;;;6156800;23;20029;-84
2021/12/24 05:24:21;;;;;;;25.10;11.65;;;8.70;99.90;;;;;;6130881;23;20024;-84
2021/12/24 05:26:54;;;;;;;26.90;11.05;;;8.70;99.90;;;;;;6208770;23;20012;-84
2021/12/24 05:29:21;;;;;;;27.33;11.00;;;8.70;99.90;;;;;;6157735;23;20347;-84
2021/12/24 05:31:47;;;;;;;29.55;10.68;;;8.60;99.90;;;;;;6134402;23;20009;-84
2021/12/24 05:34:15;;;;;;;28.63;10.88;;;8.60;99.90;;;;;;6208930;23;20009;-85
2021/12/24 05:36:42;;;;;;;32.10;11.98;;;8.60;99.90;;;;;;6209186;23;20096;-84
2021/12/24 05:39:08;;;;;;;26.75;10.73;;;8.60;99.90;;;;;;6132964;23;20020;-84
2021/12/24 05:41:34;;;;;;;39.80;12.35;;;8.50;99.90;;;;;;6209136;23;20025;-84
2021/12/24 05:44:02;;;;;;;31.08;10.85;;;8.60;99.90;;;;;;6158818;23;20401;-85
2021/12/24 05:46:28;;;;;;;27.50;11.27;;;8.50;99.90;;;;;;6211256;23;20017;-86
2021/12/24 05:48:53;;;;;;;25.40;9.55;;;8.50;99.90;;;;;;6134487;23;20145;-86
2021/12/24 05:51:19;;;;;;;26.33;9.60;;;8.50;99.90;;;;;;6134316;23;20543;-87
2021/12/24 05:53:45;;;;;;;29.95;10.60;;;8.50;99.90;;;;;;6135071;23;20013;-87
2021/12/24 05:56:11;;;;;;;23.33;9.90;;;8.60;99.90;;;;;;6179902;23;20012;-87
2021/12/24 05:58:36;;;;;;;29.55;9.80;;;8.60;99.90;;;;;;6157170;23;20091;-87
2021/12/24 06:01:02;;;;;;;28.90;9.60;;;8.60;99.90;;;;;;6131607;23;20443;-87
2021/12/24 06:03:28;;;;;;;27.95;10.57;;;8.60;99.90;;;;;;6178375;23;20024;-87
2021/12/24 06:05:54;;;;;;;22.90;9.23;;;8.60;99.90;;;;;;6151583;23;20024;-86
2021/12/24 06:08:19;;;;;;;24.33;10.00;;;8.50;99.90;;;;;;6153193;23;20336;-84
2021/12/24 06:10:45;;;;;;;27.98;8.45;;;8.50;99.90;;;;;;6150306;23;20017;-86
2021/12/24 06:13:11;;;;;;;27.40;8.88;;;8.50;99.90;;;;;;6152828;23;20013;-87
2021/12/24 06:15:46;;;;;;;22.60;7.53;;;8.40;99.90;;;;;;6127697;23;20092;-87
2021/12/24 06:18:20;;;;;;;27.85;8.38;;;8.40;99.90;;;;;;6202071;23;20019;-84
2021/12/24 06:20:45;;;;;;;31.48;8.40;;;8.40;99.90;;;;;;6150423;23;20088;-84
2021/12/24 06:23:12;;;;;;;23.80;7.68;;;8.40;99.90;;;;;;6175765;23;20047;-84
2021/12/24 06:25:37;;;;;;;25.38;8.38;;;8.30;99.90;;;;;;6123941;23;20017;-83
2021/12/24 06:28:04;;;;;;;26.33;8.35;;;8.30;99.90;;;;;;6148776;23;20099;-84
2021/12/24 06:30:29;;;;;;;27.90;7.85;;;8.30;99.90;;;;;;6124576;23;20490;-87
2021/12/24 06:32:56;;;;;;;22.38;7.68;;;8.30;99.90;;;;;;6149995;23;20009;-87
2021/12/24 06:35:24;;;;;;;29.73;7.80;;;8.30;99.90;;;;;;6123643;23;20009;-85
2021/12/24 06:37:50;;;;;;;25.63;7.13;;;8.30;99.90;;;;;;6175139;23;20048;-83
2021/12/24 06:40:16;;;;;;;19.90;7.57;;;8.30;99.90;;;;;;6200410;23;20463;-84
2021/12/24 06:42:42;;;;;;;28.35;7.88;;;8.30;99.90;;;;;;6205161;23;20340;-84
2021/12/24 06:45:08;;;;;;;18.63;7.22;;;8.40;99.90;;;;;;6156147;23;20091;-85
2021/12/24 06:47:34;;;;;;;16.33;6.82;;;8.30;99.90;;;;;;6130638;23;20017;-85
2021/12/24 06:50:00;;;;;;;27.65;7.32;;;8.30;99.90;;;;;;6135091;23;20455;-85
2021/12/24 06:52:25;;;;;;;25.42;6.65;;;8.30;99.90;;;;;;6134580;23;20116;-85
2021/12/24 06:54:51;;;;;;;28.52;8.70;;;8.30;99.90;;;;;;6158306;23;20013;-84
2021/12/24 06:57:19;;;;;;;21.75;6.72;;;8.30;99.90;;;;;;6157147;23;20040;-84
2021/12/24 06:59:46;;;;;;;22.60;8.13;;;8.30;99.90;;;;;;6133830;23;20017;-86
2021/12/24 07:02:12;;;;;;;22.80;7.40;;;8.40;99.90;;;;;;6158321;23;20013;-85
2021/12/24 07:04:37;;;;;;;26.33;7.40;;;8.40;99.90;;;;;;6158442;23;20573;-84
2021/12/24 07:07:03;;;;;;;27.33;8.02;;;8.40;99.90;;;;;;6184608;23;20344;-85
2021/12/24 07:09:29;;;;;;;23.77;6.88;;;8.40;99.90;;;;;;6132224;23;20013;-85
2021/12/24 07:11:54;;;;;;;24.83;7.70;;;8.30;99.90;;;;;;6133452;23;20532;-84
2021/12/24 07:14:22;;;;;;;25.77;7.65;;;8.30;99.90;;;;;;6132697;23;20302;-84
2021/12/24 07:16:48;;;;;;;24.35;6.90;;;8.40;99.90;;;;;;6133504;23;20005;-84
2021/12/24 07:19:14;;;;;;;24.33;7.00;;;8.30;99.90;;;;;;6158414;23;20107;-84
2021/12/24 07:21:41;;;;;;;19.25;6.80;;;8.30;99.90;;;;;;6158559;23;20067;-85
2021/12/24 07:24:07;;;;;;;22.45;7.63;;;8.40;99.90;;;;;;6131335;23;20120;-84
2021/12/24 07:26:33;;;;;;;26.17;7.45;;;8.30;99.90;;;;;;6134780;23;20017;-85
2021/12/24 07:28:59;;;;;;;16.08;6.05;;;8.30;99.90;;;;;;6135298;23;20023;-84
2021/12/24 07:31:25;;;;;;;23.83;6.47;;;8.30;99.90;;;;;;6158759;23;20005;-84
2021/12/24 07:33:50;;;;;;;18.13;6.03;;;8.20;99.90;;;;;;6132403;23;20006;-84
2021/12/24 07:36:16;;;;;;;24.98;7.35;;;8.30;99.90;;;;;;6157152;23;20095;-85
2021/12/24 07:38:41;;;;;;;25.20;7.10;;;8.30;99.90;;;;;;6132072;23;20073;-84
2021/12/24 07:41:07;;;;;;;26.20;6.75;;;8.30;99.90;;;;;;6131141;23;20048;-85
2021/12/24 07:43:38;;;;;;;26.05;6.93;;;8.30;99.90;;;;;;6206527;23;20444;-85
2021/12/24 07:46:07;;;;;;;23.40;6.15;;;8.30;99.90;;;;;;6181142;23;20440;-85
2021/12/24 07:48:35;;;;;;;27.25;6.60;;;8.30;99.90;;;;;;6156630;23;20013;-85
2021/12/24 07:53:30;;;;;;;25.52;6.57;;;8.20;99.90;;;;;;6157188;23;20087;-85
2021/12/24 07:55:56;;;;;;;29.52;6.60;;;8.10;99.90;;;;;;6156417;23;20048;-85
2021/12/24 07:58:22;;;;;;;22.40;7.03;;;8.10;99.90;;;;;;6181684;23;20013;-85
2021/12/24 08:00:48;;;;;;;26.20;7.97;;;8.00;99.90;;;;;;6156537;23;20023;-85
2021/12/24 08:03:14;;;;;;;22.65;6.25;;;8.00;99.90;;;;;;6132863;23;20017;-85
2021/12/24 08:05:41;;;;;;;25.92;6.55;;;8.00;99.90;;;;;;6131860;23;20124;-87
2021/12/24 08:08:08;;;;;;;28.45;6.82;;;8.00;99.90;;;;;;6132419;23;20741;-85
2021/12/24 08:10:34;;;;;;;18.65;6.00;;;8.00;99.90;;;;;;6131707;23;20013;-85
2021/12/24 08:13:02;;;;;;;23.38;6.65;;;8.00;99.90;;;;;;6157342;23;20009;-85
2021/12/24 08:15:31;;;;;;;28.00;6.07;;;8.00;99.90;;;;;;6182509;23;20075;-85
2021/12/24 08:17:57;;;;;;;23.75;5.63;;;8.00;99.90;;;;;;6132596;23;20016;-85
2021/12/24 08:20:25;;;;;;;25.83;5.65;;;8.00;99.90;;;;;;6132043;23;20021;-85
2021/12/24 08:22:53;;;;;;;22.73;5.15;;;7.90;99.90;;;;;;6156528;23;20067;-85
2021/12/24 08:25:23;;;;;;;21.08;4.97;;;7.90;99.90;;;;;;6128934;23;20033;-85
2021/12/24 08:27:49;;;;;;;25.38;4.90;;;7.90;99.90;;;;;;6155685;23;20015;-85
2021/12/24 08:30:20;;;;;;;24.40;4.93;;;7.90;99.90;;;;;;6155946;23;20012;-85
2021/12/24 08:32:55;;;;;;;27.23;4.45;;;7.90;99.90;;;;;;6130565;23;20377;-84
2021/12/24 08:43:04;;;;;;;25.60;5.30;;;7.80;99.90;;;;;;6064420;23;20026;-87
2021/12/24 08:45:30;;;;;;;19.17;4.43;;;7.80;99.90;;;;;;6041644;23;20018;-87
2021/12/24 08:48:36;;;;;;;19.25;4.20;;;7.80;99.90;;;;;;6127941;23;20036;-87
2021/12/24 08:51:01;;;;;;;24.73;4.38;;;7.80;99.90;;;;;;6065690;23;20011;-85
2021/12/24 08:53:27;;;;;;;27.02;4.05;;;7.80;99.90;;;;;;6119006;23;20355;-85
2021/12/24 08:55:53;;;;;;;23.90;3.88;;;7.90;99.90;;;;;;6179288;23;20095;-85
2021/12/24 08:58:19;;;;;;;25.50;4.53;;;7.90;99.90;;;;;;6155767;23;20376;-84
2021/12/24 09:00:45;;;;;;;28.58;5.15;;;7.90;99.90;;;;;;6180202;23;20013;-85
2021/12/24 09:03:11;;;;;;;16.45;3.42;;;7.90;99.90;;;;;;6155946;23;20017;-88
2021/12/24 09:05:37;;;;;;;26.23;3.90;;;7.90;99.90;;;;;;6131499;23;20019;-87
2021/12/24 09:08:03;;;;;;;19.52;3.75;;;7.90;99.90;;;;;;6154673;23;20060;-85
2021/12/24 09:10:29;;;;;;;22.75;4.07;;;7.90;99.90;;;;;;6130214;23;20392;-85
2021/12/24 09:12:55;;;;;;;20.58;4.63;;;7.90;99.90;;;;;;6131745;23;20011;-85
2021/12/24 09:15:21;;;;;;;24.55;4.10;;;8.00;99.90;;;;;;6130851;23;20009;-85
2021/12/24 09:17:47;;;;;;;24.70;4.28;;;7.90;99.90;;;;;;6155075;23;20024;-85
2021/12/24 09:20:23;;;;;;;23.08;5.90;;;7.90;99.90;;;;;;6156536;23;20012;-85
2021/12/24 09:22:49;;;;;;;26.33;4.40;;;7.90;99.90;;;;;;6179813;23;20052;-85
2021/12/24 09:25:16;;;;;;;24.75;4.35;;;7.90;99.90;;;;;;6128703;23;20009;-85
2021/12/24 09:27:41;;;;;;;20.85;4.45;;;8.00;99.90;;;;;;6204466;23;20060;-85
2021/12/24 09:30:08;;;;;;;25.02;4.93;;;7.90;99.90;;;;;;6129917;23;20009;-86
2021/12/24 09:32:34;;;;;;;31.90;4.55;;;8.00;99.90;;;;;;6205951;23;20013;-85
2021/12/24 09:34:59;;;;;;;39.40;5.63;;;8.00;99.90;;;;;;6130994;23;20012;-85
2021/12/24 09:37:25;;;;;;;24.40;5.50;;;8.00;99.90;;;;;;6131150;23;20012;-85
2021/12/24 09:39:51;;;;;;;21.10;5.55;;;8.00;99.90;;;;;;6155076;23;20017;-85
2021/12/24 09:42:17;;;;;;;33.10;6.68;;;8.00;99.90;;;;;;6155485;23;20032;-85
2021/12/24 09:44:43;;;;;;;32.97;5.32;;;8.00;99.90;;;;;;6155569;23;20049;-85
2021/12/24 09:47:09;;;;;;;22.02;5.47;;;8.10;99.90;;;;;;6157209;23;20013;-85
2021/12/24 09:49:35;;;;;;;19.73;5.88;;;8.10;99.90;;;;;;6138752;23;20053;-86
2021/12/24 09:52:03;;;;;;;21.33;5.70;;;8.10;99.90;;;;;;6130434;23;20012;-85
2021/12/24 09:54:29;;;;;;;24.35;6.35;;;8.10;99.90;;;;;;6129939;23;20009;-85
2021/12/24 09:56:56;;;;;;;28.25;5.78;;;8.10;99.90;;;;;;6154411;23;20462;-85
2021/12/24 09:59:23;;;;;;;29.33;5.88;;;8.10;99.90;;;;;;6166943;23;20017;-86
2021/12/24 10:01:59;;;;;;;23.95;5.28;;;8.10;99.90;;;;;;6136998;23;20012;-85
2021/12/24 10:04:31;;;;;;;28.42;5.60;;;8.20;99.90;;;;;;6138792;23;20077;-87
2021/12/24 10:07:03;;;;;;;26.98;5.60;;;8.10;99.90;;;;;;6146005;23;20098;-86
2021/12/24 10:09:41;;;;;;;25.00;4.78;;;8.20;99.90;;;;;;6157213;23;20107;-86
2021/12/24 10:12:10;;;;;;;25.85;4.38;;;8.20;99.90;;;;;;6203809;23;20403;-86
2021/12/24 10:14:39;;;;;;;20.52;4.63;;;8.20;99.90;;;;;;6156575;23;20009;-86
2021/12/24 10:17:20;;;;;;;20.48;4.30;;;8.30;99.90;;;;;;6207930;23;20067;-86
2021/12/24 10:19:49;;;;;;;22.17;4.82;;;8.30;99.90;;;;;;6156489;23;20039;-86
2021/12/24 10:22:15;;;;;;;22.92;4.43;;;8.40;99.90;;;;;;6154838;23;20017;-86
2021/12/24 10:24:41;;;;;;;16.80;3.65;;;8.40;99.90;;;;;;6154782;23;20013;-86
2021/12/24 10:27:07;;;;;;;18.00;4.03;;;8.50;99.90;;;;;;6130169;23;20463;-86
2021/12/24 10:29:38;;;;;;;18.75;4.10;;;8.50;99.90;;;;;;6154075;23;20096;-84
2021/12/24 10:32:19;;;;;;;20.23;4.57;;;8.50;99.90;;;;;;6133549;23;20019;-85
2021/12/24 10:34:45;;;;;;;25.23;5.47;;;8.50;99.90;;;;;;6132332;23;20088;-85
2021/12/24 10:37:22;;;;;;;23.58;5.15;;;8.60;99.90;;;;;;6155571;23;20092;-85
2021/12/24 10:39:54;;;;;;;13.48;4.70;;;8.60;99.90;;;;;;6149600;23;20388;-85
2021/12/24 10:42:32;;;;;;;21.70;5.33;;;8.60;99.90;;;;;;6151742;23;20026;-85
2021/12/24 10:45:00;;;;;;;27.55;5.43;;;8.50;99.90;;;;;;6151277;23;20249;-85
2021/12/24 10:47:27;;;;;;;21.10;5.47;;;8.60;99.90;;;;;;6150616;23;20506;-85
2021/12/24 10:50:08;;;;;;;25.63;4.93;;;8.60;99.90;;;;;;6150489;23;20371;-84
2021/12/24 10:52:56;;;;;;;21.98;4.80;;;8.60;99.90;;;;;;6127181;23;20400;-84
2021/12/24 10:55:35;;;;;;;20.42;5.30;;;8.60;99.90;;;;;;6125293;23;20088;-84
2021/12/24 10:58:04;;;;;;;18.08;5.00;;;8.60;99.90;;;;;;6126256;23;20088;-84
2021/12/24 11:00:32;;;;;;;24.00;6.32;;;8.60;99.90;;;;;;6151224;23;20030;-85
2021/12/24 11:03:01;;;;;;;22.77;5.20;;;8.50;99.90;;;;;;6125293;23;20009;-85
2021/12/24 11:05:38;;;;;;;22.25;4.63;;;8.50;99.90;;;;;;6125592;23;20013;-85
2021/12/24 11:08:18;;;;;;;22.55;5.22;;;8.50;99.90;;;;;;6125875;23;20021;-85
2021/12/24 11:10:56;;;;;;;23.48;5.90;;;8.50;99.90;;;;;;6149677;23;20448;-85
2021/12/24 11:13:32;;;;;;;19.90;4.70;;;8.50;99.90;;;;;;6199450;23;20015;-85
2021/12/24 11:16:02;;;;;;;18.98;4.97;;;8.60;99.90;;;;;;6194892;23;20017;-85
2021/12/24 11:18:30;;;;;;;19.67;4.88;;;8.60;99.90;;;;;;6149209;23;20090;-85
2021/12/24 11:21:06;;;;;;;23.33;5.35;;;8.60;99.90;;;;;;6200385;23;20391;-85
2021/12/24 11:23:34;;;;;;;20.27;4.60;;;8.60;99.90;;;;;;6148546;23;20013;-84
2021/12/24 11:26:11;;;;;;;23.52;5.03;;;8.50;99.90;;;;;;6150272;23;20017;-85
2021/12/24 11:28:38;;;;;;;19.02;4.80;;;8.60;99.90;;;;;;6126029;23;20092;-85
2021/12/24 11:31:07;;;;;;;20.73;5.13;;;8.60;99.90;;;;;;6125938;23;20470;-85
2021/12/24 11:33:38;;;;;;;29.88;4.97;;;8.60;99.90;;;;;;6152603;23;20017;-85
2021/12/24 11:36:06;;;;;;;21.27;4.45;;;8.60;99.90;;;;;;6127697;23;20468;-85
2021/12/24 11:38:43;;;;;;;20.73;5.18;;;8.50;99.90;;;;;;6128183;23;20325;-85
2021/12/24 11:41:12;;;;;;;15.02;4.72;;;8.50;99.90;;;;;;6178940;23;20022;-85
2021/12/24 11:43:39;;;;;;;19.92;4.70;;;8.50;99.90;;;;;;6097405;23;20069;-85
2021/12/24 11:46:08;;;;;;;17.73;5.22;;;8.50;99.90;;;;;;6098447;23;20026;-85
2021/12/24 11:48:35;;;;;;;24.90;4.75;;;8.50;99.90;;;;;;6123618;23;20352;-84
2021/12/24 11:51:07;;;;;;;13.43;3.88;;;8.40;99.90;;;;;;6122425;23;20018;-85
2021/12/24 11:53:34;;;;;;;15.32;3.00;;;8.40;99.90;;;;;;6096528;23;20483;-85
2021/12/24 11:56:09;;;;;;;13.80;2.30;;;8.30;99.90;;;;;;6122381;23;20441;-84
2021/12/24 11:58:45;;;;;;;9.27;2.58;;;8.30;99.90;;;;;;6097762;23;20068;-85
2021/12/24 12:01:11;;;;;;;12.38;2.63;;;8.20;99.90;;;;;;6097740;23;20088;-85
2021/12/24 12:03:49;;;;;;;11.77;2.47;;;8.20;99.90;;;;;;6121371;23;20033;-85
2021/12/24 12:06:24;;;;;;;7.05;1.60;;;8.10;99.90;;;;;;6121840;23;20028;-85
2021/12/24 12:08:54;;;;;;;1.25;0.30;;;8.10;99.90;;;;;;6122050;23;20400;-84
2021/12/24 12:11:31;;;;;;;0.57;0.22;;;8.00;99.90;;;;;;6097321;23;20475;-84
2021/12/24 12:14:21;;;;;;;0.60;0.20;;;7.80;99.90;;;;;;6124128;23;20014;-84
2021/12/24 12:16:50;;;;;;;0.40;0.20;;;7.60;99.90;;;;;;6120906;23;20417;-84
2021/12/24 12:19:24;;;;;;;1.85;0.30;;;7.50;99.90;;;;;;6098322;23;20028;-84
2021/12/24 12:22:32;;;;;;;0.95;0.32;;;7.40;99.90;;;;;;6122583;23;20072;-84
2021/12/24 12:25:06;;;;;;;0.75;0.40;;;7.40;99.90;;;;;;6097385;23;20089;-84
2021/12/24 12:28:07;;;;;;;0.88;0.47;;;7.30;99.90;;;;;;6122347;23;20116;-85
2021/12/24 12:30:36;;;;;;;1.00;0.40;;;7.40;99.90;;;;;;6085227;23;20121;-84
2021/12/24 12:33:16;;;;;;;0.65;0.40;;;7.30;99.90;;;;;;6100762;23;20483;-84
2021/12/24 12:35:48;;;;;;;0.80;0.40;;;7.30;99.90;;;;;;6124064;23;20065;-84
2021/12/24 12:38:34;;;;;;;1.17;0.68;;;7.30;99.90;;;;;;6099672;23;20076;-84
2021/12/24 12:41:33;;;;;;;5.07;0.60;;;7.30;99.90;;;;;;6140363;23;20049;-84
2021/12/24 12:44:07;;;;;;;0.65;0.43;;;7.30;99.90;;;;;;6126553;23;20017;-84
2021/12/24 12:46:36;;;;;;;0.80;0.30;;;7.30;99.90;;;;;;6200330;23;20053;-84
2021/12/24 12:49:06;;;;;;;1.10;0.60;;;7.30;99.90;;;;;;6128010;23;20017;-84
2021/12/24 12:51:52;;;;;;;1.88;0.60;;;7.30;99.90;;;;;;6203268;23;20352;-84
2021/12/24 12:54:40;;;;;;;1.20;0.50;;;7.30;99.90;;;;;;6124089;23;20344;-84
2021/12/24 12:57:09;;;;;;;1.17;0.60;;;7.30;99.90;;;;;;6150013;23;20019;-84
2021/12/24 12:59:34;;;;;;;1.60;0.60;;;7.40;99.90;;;;;;6149405;23;20020;-84
2021/12/24 13:02:01;;;;;;;1.50;0.60;;;7.30;99.90;;;;;;6123229;23;20408;-84
2021/12/24 13:04:27;;;;;;;3.25;0.50;;;7.40;99.90;;;;;;6200368;23;20084;-84
2021/12/24 13:06:54;;;;;;;1.10;0.50;;;7.40;99.90;;;;;;6149253;23;20018;-84
2021/12/24 13:09:33;;;;;;;1.40;0.70;;;7.40;99.90;;;;;;6148499;23;20041;-84
2021/12/24 13:12:01;;;;;;;1.10;0.50;;;7.40;99.90;;;;;;6126050;23;20013;-84
2021/12/24 13:14:30;;;;;;;0.77;0.43;;;7.40;99.90;;;;;;6197395;23;20010;-84
2021/12/24 13:17:16;;;;;;;1.42;0.70;;;7.40;99.90;;;;;;6200372;23;20029;-84
2021/12/24 13:22:28;;;;;;;1.42;0.70;;;7.40;99.90;;;;;;6149267;23;20053;-84
2021/12/24 13:25:15;;;;;;;1.00;0.50;;;7.40;99.90;;;;;;6148486;23;20013;-84
2021/12/24 13:27:51;;;;;;;1.00;0.50;;;7.40;99.90;;;;;;6198927;23;20021;-84
2021/12/24 13:30:25;;;;;;;1.38;0.60;;;7.30;99.90;;;;;;6147577;23;20076;-83
2021/12/24 13:32:59;;;;;;;1.38;0.63;;;7.30;99.90;;;;;;6144419;23;20378;-85
2021/12/24 13:35:42;;;;;;;1.00;0.40;;;7.30;99.90;;;;;;6147489;23;20036;-85
2021/12/24 13:38:23;;;;;;;1.10;0.50;;;7.30;99.90;;;;;;6125130;23;20589;-85
2021/12/24 13:40:48;;;;;;;0.70;0.38;;;7.30;99.90;;;;;;6126075;23;20018;-85
2021/12/24 13:43:15;;;;;;;0.93;0.40;;;7.30;99.90;;;;;;6125989;23;20014;-85
2021/12/24 13:45:43;;;;;;;1.85;0.50;;;7.30;99.90;;;;;;6149969;23;20051;-85
2021/12/24 13:48:23;;;;;;;0.85;0.40;;;7.20;99.90;;;;;;6153284;23;20014;-85
2021/12/24 13:56:43;;;;;;;0.95;0.40;;;7.20;99.90;;;;;;6152542;23;20022;-86
2021/12/24 13:59:10;;;;;;;;;;;7.20;99.90;;;;;;6127835;23;20024;-86
2021/12/24 14:01:38;;;;;;;1.13;0.68;;;7.10;99.90;;;;;;6177747;23;20369;-86
2021/12/24 14:04:05;;;;;;;1.02;0.45;;;7.10;99.90;;;;;;6128548;23;20013;-86
2021/12/24 14:06:35;;;;;;;1.00;0.40;;;7.10;99.90;;;;;;6152281;23;20017;-86
2021/12/24 14:09:12;;;;;;;0.82;0.45;;;7.10;99.90;;;;;;6126143;23;20024;-85
2021/12/24 14:11:39;;;;;;;1.05;0.55;;;7.10;99.90;;;;;;6152085;23;20025;-85
2021/12/24 14:14:16;;;;;;;1.85;0.70;;;7.10;99.90;;;;;;6200318;23;20321;-85
2021/12/24 14:19:18;;;;;;;1.20;0.60;;;7.10;99.90;;;;;;6151081;23;20024;-86
2021/12/24 14:21:46;;;;;;;3.00;0.88;;;7.10;99.90;;;;;;6201099;23;20080;-86
2021/12/24 14:24:21;;;;;;;1.00;0.50;;;7.10;99.90;;;;;;6150905;23;20018;-86
2021/12/24 14:26:49;;;;;;;1.48;0.65;;;7.10;99.90;;;;;;6151171;23;20021;-86
2021/12/24 14:29:27;;;;;;;1.90;0.80;;;7.10;99.90;;;;;;6124185;23;20017;-86
2021/12/24 14:31:56;;;;;;;3.20;0.80;;;7.10;99.90;;;;;;6148617;23;20047;-87
2021/12/24 14:34:42;;;;;;;1.15;0.70;;;7.00;99.90;;;;;;6149837;23;20018;-86
2021/12/24 14:37:11;;;;;;;1.02;0.60;;;7.00;99.90;;;;;;6127822;23;20530;-86
2021/12/24 14:39:40;;;;;;;1.48;0.70;;;7.00;99.90;;;;;;6152960;23;20030;-86
2021/12/24 14:42:30;;;;;;;1.20;0.60;;;6.90;99.90;;;;;;6180861;23;20119;-86
2021/12/24 14:45:23;;;;;;;1.85;0.80;;;6.90;99.90;;;;;;6131117;23;20451;-85
2021/12/24 14:48:04;;;;;;;1.77;0.90;;;6.90;99.90;;;;;;6132713;23;20017;-86
2021/12/24 14:50:47;;;;;;;2.28;0.95;;;6.90;99.90;;;;;;6131328;23;20017;-86